Terminal Aerodrome Forecast
Issued by NWS

Home | Current Version | Previous Version | Text Only | Print | Product List | Glossary On
Versions: 1 2 3 4 5 6 7 8 9 10 11 12 13 14 15 16 17 18 19 20 21
711
FTUS41 KOKX 130831 AAA
TAFHPN
TAF AMD
KHPN 130831Z 1309/1406 28010KT P6SM OVC050
     FM131200 31015G23KT P6SM BKN110
     FM131400 31018G29KT P6SM BKN070
     FM131600 31020G35KT P6SM BKN040
     FM132000 31021G36KT P6SM SCT090
      AMD NOT SKED=

USA.gov is the U.S. government's official web portal to all federal, state and local government web resources and services.